Time;durP1;ratioP1;P1;durP2;ratioP2;P2;SDS_P1;SDS_P2;PMS_P1;PMS_P2;Temp;Humidity;BMP_temperature;BMP_pressure;BME280_temperature;BME280_humidity;BME280_pressure;Samples;Min_cycle;Max_cycle;Signal;HPM_P1;HPM_P2
2021/12/09 00:01:14;;;;;;;3.72;2.15;;;0.80;99.90;;;;;;4975740;28;20278;-72
2021/12/09 00:03:41;;;;;;;4.93;2.17;;;0.80;99.90;;;;;;4974561;28;20492;-73
2021/12/09 00:06:11;;;;;;;3.20;2.35;;;0.80;99.90;;;;;;4974233;28;20046;-71
2021/12/09 00:08:38;;;;;;;2.65;1.85;;;0.80;99.90;;;;;;4972104;28;20285;-71
2021/12/09 00:11:07;;;;;;;4.05;2.22;;;0.80;99.90;;;;;;4974042;28;20462;-71
2021/12/09 00:13:34;;;;;;;2.15;1.80;;;0.80;99.90;;;;;;4974412;28;20482;-72
2021/12/09 00:16:01;;;;;;;1.77;1.67;;;0.80;99.90;;;;;;4974435;28;20293;-71
2021/12/09 00:18:28;;;;;;;1.80;1.65;;;0.80;99.90;;;;;;4973701;28;20484;-71
2021/12/09 00:20:56;;;;;;;2.65;1.90;;;0.80;99.90;;;;;;4974434;28;20050;-73
2021/12/09 00:23:22;;;;;;;2.03;1.83;;;0.80;99.90;;;;;;4974274;28;20050;-73
2021/12/09 00:25:49;;;;;;;2.22;2.03;;;0.80;99.90;;;;;;4973082;28;20046;-72
2021/12/09 00:28:16;;;;;;;;;;;0.80;99.90;;;;;;4974215;28;20054;-72
2021/12/09 00:30:43;;;;;;;2.58;1.85;;;0.80;99.90;;;;;;4972274;28;19929;-71
2021/12/09 00:33:11;;;;;;;2.50;1.90;;;0.80;99.90;;;;;;4972907;28;20054;-72
2021/12/09 00:35:47;;;;;;;2.90;2.30;;;0.80;99.90;;;;;;4971757;28;20320;-72
2021/12/09 00:38:32;;;;;;;2.28;2.08;;;0.80;99.90;;;;;;4973872;28;20056;-72
2021/12/09 00:41:06;;;;;;;1.85;1.67;;;0.80;99.90;;;;;;4972668;28;20471;-71
2021/12/09 00:43:33;;;;;;;1.92;1.70;;;0.80;99.90;;;;;;4974395;28;20065;-72
2021/12/09 00:46:00;;;;;;;2.28;2.08;;;0.80;99.90;;;;;;4973286;28;20551;-71
2021/12/09 00:48:26;;;;;;;;;;;0.80;99.90;;;;;;4973784;28;20050;-72
2021/12/09 00:50:55;;;;;;;2.22;1.77;;;0.70;99.90;;;;;;4973471;28;20374;-71
2021/12/09 00:53:22;;;;;;;1.85;1.73;;;0.70;99.90;;;;;;4973136;28;20054;-71
2021/12/09 00:55:49;;;;;;;2.10;1.90;;;0.70;99.90;;;;;;4972445;28;20191;-72
2021/12/09 00:58:16;;;;;;;2.33;2.05;;;0.80;99.90;;;;;;4973337;28;20042;-72
2021/12/09 01:00:43;;;;;;;2.40;2.20;;;0.70;99.90;;;;;;4973529;28;20046;-73
2021/12/09 01:03:10;;;;;;;3.00;2.40;;;0.70;99.90;;;;;;4973871;28;20177;-72
2021/12/09 01:05:36;;;;;;;;;;;0.70;99.90;;;;;;4973174;28;20750;-71
2021/12/09 01:08:05;;;;;;;2.42;2.20;;;0.70;99.90;;;;;;4972657;28;19930;-72
2021/12/09 01:10:32;;;;;;;4.05;3.10;;;0.70;99.90;;;;;;4972999;28;20574;-71
2021/12/09 01:12:59;;;;;;;3.72;3.30;;;0.70;99.90;;;;;;4973399;28;20720;-71
2021/12/09 01:15:26;;;;;;;4.60;3.70;;;0.70;99.90;;;;;;4987608;28;20531;-71
2021/12/09 01:17:53;;;;;;;4.95;4.18;;;0.70;99.90;;;;;;4972936;28;20042;-71
2021/12/09 01:20:25;;;;;;;4.72;4.20;;;0.70;99.90;;;;;;4973440;28;20054;-71
2021/12/09 01:22:57;;;;;;;6.68;4.97;;;0.70;99.90;;;;;;4972588;28;20121;-71
2021/12/09 01:25:26;;;;;;;5.85;4.85;;;0.70;99.90;;;;;;4973496;28;20439;-71
2021/12/09 01:27:56;;;;;;;7.97;5.55;;;0.70;99.90;;;;;;4972651;28;20575;-71
2021/12/09 01:30:24;;;;;;;7.55;5.15;;;0.70;99.90;;;;;;4973337;28;20054;-72
2021/12/09 01:32:54;;;;;;;10.43;6.43;;;0.70;99.90;;;;;;4972339;28;20117;-70
2021/12/09 01:35:28;;;;;;;7.18;5.50;;;0.70;99.90;;;;;;4972665;28;20050;-70
2021/12/09 01:37:59;;;;;;;7.75;6.40;;;0.70;99.90;;;;;;4971592;28;20403;-71
2021/12/09 01:40:28;;;;;;;9.82;6.25;;;0.70;99.90;;;;;;4972498;28;20057;-71
2021/12/09 01:42:56;;;;;;;8.57;5.85;;;0.70;99.90;;;;;;4972511;28;20043;-71
2021/12/09 01:45:24;;;;;;;8.05;5.85;;;0.70;99.90;;;;;;4986326;28;20062;-71
2021/12/09 01:47:50;;;;;;;8.65;5.72;;;0.70;99.90;;;;;;4972903;28;20062;-71
2021/12/09 01:50:17;;;;;;;;;;;0.70;99.90;;;;;;4972884;28;20367;-72
2021/12/09 01:52:44;;;;;;;8.13;5.57;;;0.60;99.90;;;;;;4972951;28;19926;-72
2021/12/09 01:55:14;;;;;;;9.90;5.70;;;0.60;99.90;;;;;;4971003;28;20065;-72
2021/12/09 01:57:41;;;;;;;9.30;5.45;;;0.60;99.90;;;;;;4972937;28;20061;-71
2021/12/09 02:00:13;;;;;;;9.30;6.10;;;0.60;99.90;;;;;;4972586;28;20077;-72
2021/12/09 02:02:41;;;;;;;7.55;5.57;;;0.60;99.90;;;;;;4972293;28;20050;-71
2021/12/09 02:05:25;;;;;;;9.85;4.80;;;0.60;99.90;;;;;;4973276;28;20042;-71
2021/12/09 02:07:52;;;;;;;7.03;4.28;;;0.60;99.90;;;;;;4972288;28;20089;-71
2021/12/09 02:10:20;;;;;;;6.47;3.80;;;0.70;99.90;;;;;;4987703;28;20050;-71
2021/12/09 02:12:50;;;;;;;7.40;3.45;;;0.70;99.90;;;;;;4973103;28;20508;-72
2021/12/09 02:15:20;;;;;;;8.02;3.95;;;0.70;99.90;;;;;;4988095;28;20580;-72
2021/12/09 02:17:47;;;;;;;7.10;3.80;;;0.70;99.90;;;;;;4971817;28;20046;-72
2021/12/09 02:20:15;;;;;;;4.05;2.88;;;0.70;99.90;;;;;;4976598;28;20054;-72
2021/12/09 02:22:46;;;;;;;6.18;3.45;;;0.70;99.90;;;;;;4975856;28;20423;-72
2021/12/09 02:25:15;;;;;;;8.30;4.45;;;0.70;99.90;;;;;;4976628;28;20101;-72
2021/12/09 02:27:43;;;;;;;5.40;3.10;;;0.70;99.90;;;;;;4976672;28;20153;-72
2021/12/09 02:30:11;;;;;;;4.22;2.95;;;0.70;99.90;;;;;;4975021;28;20042;-72
2021/12/09 02:32:38;;;;;;;3.88;2.65;;;0.70;99.90;;;;;;4976484;28;20539;-72
2021/12/09 02:35:05;;;;;;;7.07;3.38;;;0.70;99.90;;;;;;4976146;28;20069;-71
2021/12/09 02:37:32;;;;;;;3.65;2.45;;;0.70;99.90;;;;;;4976060;28;20562;-72
2021/12/09 02:40:00;;;;;;;4.45;2.55;;;0.60;99.90;;;;;;4976912;28;20065;-71
2021/12/09 02:42:29;;;;;;;7.03;2.55;;;0.60;99.90;;;;;;4975839;28;20042;-71
2021/12/09 02:44:57;;;;;;;5.82;2.38;;;0.60;99.90;;;;;;4975913;28;20559;-72
2021/12/09 02:47:24;;;;;;;10.30;2.10;;;0.60;99.90;;;;;;4974854;28;20479;-71
2021/12/09 02:49:52;;;;;;;4.40;1.85;;;0.60;99.90;;;;;;4975944;28;20074;-72
2021/12/09 02:52:19;;;;;;;3.53;1.85;;;0.60;99.90;;;;;;4973788;28;20603;-71
2021/12/09 02:54:46;;;;;;;3.47;1.77;;;0.70;99.90;;;;;;4974382;28;20587;-71
2021/12/09 02:57:13;;;;;;;2.15;1.70;;;0.70;99.90;;;;;;4974936;28;20046;-72
2021/12/09 02:59:41;;;;;;;6.57;1.50;;;0.70;99.90;;;;;;4972901;28;20522;-72
2021/12/09 03:02:10;;;;;;;2.58;1.58;;;0.70;99.90;;;;;;4975034;28;20046;-71
2021/12/09 03:04:50;;;;;;;2.92;1.50;;;0.70;99.90;;;;;;4971612;28;20055;-72
2021/12/09 03:07:23;;;;;;;2.75;1.45;;;0.70;99.90;;;;;;4975456;28;20106;-72
2021/12/09 03:09:54;;;;;;;1.35;1.08;;;0.70;99.90;;;;;;4974814;28;20061;-71
2021/12/09 03:12:28;;;;;;;2.13;1.13;;;0.70;99.90;;;;;;4973836;28;20554;-71
2021/12/09 03:14:55;;;;;;;1.58;1.42;;;0.70;99.90;;;;;;4974738;28;20045;-72
2021/12/09 03:17:22;;;;;;;2.15;1.30;;;0.70;99.90;;;;;;4975234;28;20260;-71
2021/12/09 03:19:51;;;;;;;1.38;1.10;;;0.70;99.90;;;;;;4974784;28;20050;-71
2021/12/09 03:22:18;;;;;;;1.48;1.00;;;0.70;99.90;;;;;;4975003;28;20046;-70
2021/12/09 03:24:45;;;;;;;2.53;1.38;;;0.70;99.90;;;;;;4974270;28;20762;-71
2021/12/09 03:27:12;;;;;;;2.72;1.40;;;0.70;99.90;;;;;;4975117;28;20057;-71
2021/12/09 03:29:40;;;;;;;5.10;1.90;;;0.70;99.90;;;;;;4974637;28;20046;-71
2021/12/09 03:32:14;;;;;;;1.80;1.60;;;0.70;99.90;;;;;;4974737;28;20591;-71
2021/12/09 03:34:43;;;;;;;2.03;1.40;;;0.80;99.90;;;;;;4975196;28;20057;-71
2021/12/09 03:37:15;;;;;;;2.20;1.52;;;0.80;99.90;;;;;;4973059;28;20390;-70
2021/12/09 03:39:43;;;;;;;2.03;1.27;;;0.80;99.90;;;;;;4973309;28;20050;-71
2021/12/09 03:42:13;;;;;;;4.57;2.15;;;0.80;99.90;;;;;;4973712;28;20467;-71
2021/12/09 03:44:42;;;;;;;2.97;2.10;;;0.80;99.90;;;;;;4974770;28;20042;-71
2021/12/09 03:47:11;;;;;;;2.67;2.03;;;0.80;99.90;;;;;;4975148;28;20587;-70
2021/12/09 03:49:41;;;;;;;4.18;2.33;;;0.80;99.90;;;;;;4974317;28;20625;-71
2021/12/09 03:52:10;;;;;;;2.92;2.05;;;0.80;99.90;;;;;;4974385;28;20076;-71
2021/12/09 03:54:37;;;;;;;3.47;2.80;;;0.80;99.90;;;;;;4972953;28;20137;-71
2021/12/09 03:57:05;;;;;;;3.97;2.92;;;0.80;99.90;;;;;;4973498;28;20058;-71
2021/12/09 03:59:32;;;;;;;3.65;2.90;;;0.80;99.90;;;;;;4971658;28;20699;-71
2021/12/09 04:01:59;;;;;;;4.30;3.42;;;0.80;99.90;;;;;;4972468;28;20314;-71
2021/12/09 04:04:26;;;;;;;3.78;2.80;;;0.80;99.90;;;;;;4974079;28;20408;-71
2021/12/09 04:06:53;;;;;;;3.88;3.05;;;0.80;99.90;;;;;;4971866;28;20050;-71
2021/12/09 04:09:22;;;;;;;2.67;2.35;;;0.80;99.90;;;;;;4974847;28;20459;-70
2021/12/09 04:11:50;;;;;;;3.38;2.20;;;0.80;99.90;;;;;;4974147;28;20050;-71
2021/12/09 04:14:19;;;;;;;2.45;2.25;;;0.80;99.90;;;;;;4974984;28;20519;-71
2021/12/09 04:16:47;;;;;;;2.97;1.50;;;0.80;99.90;;;;;;4970348;28;20046;-71
2021/12/09 04:19:14;;;;;;;1.90;1.70;;;0.80;99.90;;;;;;4974341;28;20480;-71
2021/12/09 04:21:43;;;;;;;2.28;1.95;;;0.80;99.90;;;;;;4972640;28;20125;-71
2021/12/09 04:24:11;;;;;;;2.00;1.80;;;0.80;99.90;;;;;;4974047;28;20062;-71
2021/12/09 04:26:44;;;;;;;2.53;1.48;;;0.80;99.90;;;;;;4973719;28;20054;-71
2021/12/09 04:29:13;;;;;;;1.67;1.38;;;0.80;99.90;;;;;;4973687;28;20436;-71
2021/12/09 04:31:41;;;;;;;2.42;1.40;;;0.80;99.90;;;;;;4973876;28;20054;-71
2021/12/09 04:34:10;;;;;;;1.30;1.13;;;0.80;99.90;;;;;;4973187;28;20064;-71
2021/12/09 04:36:38;;;;;;;1.00;0.93;;;0.80;99.90;;;;;;4972921;28;20429;-71
2021/12/09 04:39:06;;;;;;;1.48;1.38;;;0.80;99.90;;;;;;4973356;28;20483;-71
2021/12/09 04:41:33;;;;;;;1.58;1.48;;;0.80;99.90;;;;;;4973883;28;20053;-71
2021/12/09 04:44:00;;;;;;;1.02;1.02;;;0.80;99.90;;;;;;4973646;28;20034;-71
2021/12/09 04:46:26;;;;;;;1.48;1.38;;;0.80;99.90;;;;;;4973721;28;20042;-71
2021/12/09 04:48:53;;;;;;;1.55;1.40;;;0.80;99.90;;;;;;4972903;28;20038;-71
2021/12/09 04:51:20;;;;;;;1.13;1.10;;;0.80;99.90;;;;;;4973399;28;20129;-71
2021/12/09 04:53:47;;;;;;;2.13;1.92;;;0.80;99.90;;;;;;4972751;28;20054;-71
2021/12/09 04:56:14;;;;;;;1.75;1.65;;;0.80;99.90;;;;;;4973865;28;20365;-71
2021/12/09 04:58:41;;;;;;;1.88;1.77;;;0.80;99.90;;;;;;4973018;28;20439;-71
2021/12/09 05:01:09;;;;;;;2.03;1.83;;;0.80;99.90;;;;;;4973479;28;20176;-71
2021/12/09 05:03:36;;;;;;;2.28;2.08;;;0.80;99.90;;;;;;4973237;28;20052;-70
2021/12/09 05:06:03;;;;;;;2.97;2.67;;;0.80;99.90;;;;;;4972823;28;20046;-71
2021/12/09 05:08:32;;;;;;;3.10;2.70;;;0.80;99.90;;;;;;4973326;28;20050;-70
2021/12/09 05:13:34;;;;;;;5.60;3.53;;;0.80;99.90;;;;;;4972754;28;20050;-71
2021/12/09 05:16:03;;;;;;;3.75;3.42;;;0.80;99.90;;;;;;4973059;28;20038;-71
2021/12/09 05:18:32;;;;;;;4.68;4.15;;;0.80;99.90;;;;;;4972323;28;20053;-71
2021/12/09 05:21:04;;;;;;;4.43;4.00;;;0.80;99.90;;;;;;4973338;28;20054;-67
2021/12/09 05:23:31;;;;;;;4.95;4.45;;;0.80;99.90;;;;;;4973185;28;20057;-69
2021/12/09 05:25:58;;;;;;;6.40;5.45;;;0.80;99.90;;;;;;4970956;28;20412;-67
2021/12/09 05:28:31;;;;;;;5.25;4.53;;;0.80;99.90;;;;;;4972610;28;20054;-68
2021/12/09 05:33:45;;;;;;;6.85;5.93;;;0.80;99.90;;;;;;4972353;28;20043;-68
2021/12/09 05:36:13;;;;;;;5.13;4.60;;;0.80;99.90;;;;;;4972016;28;20524;-68
2021/12/09 05:38:39;;;;;;;9.27;5.75;;;0.80;99.90;;;;;;4972682;28;20077;-67
2021/12/09 05:41:08;;;;;;;12.60;8.45;;;0.80;99.90;;;;;;4972391;28;20130;-67
2021/12/09 05:43:36;;;;;;;15.75;10.20;;;0.80;99.90;;;;;;4972857;28;20049;-67
2021/12/09 05:46:04;;;;;;;12.35;8.43;;;0.80;99.90;;;;;;4972584;28;20220;-68
2021/12/09 05:48:31;;;;;;;14.15;9.07;;;0.80;99.90;;;;;;4972947;28;20049;-67
2021/12/09 05:50:58;;;;;;;8.00;5.80;;;0.80;99.90;;;;;;4971568;28;20054;-67
2021/12/09 05:53:25;;;;;;;8.10;6.47;;;0.80;99.90;;;;;;4972970;28;20046;-67
2021/12/09 05:55:52;;;;;;;9.13;6.57;;;0.70;99.90;;;;;;4976751;28;20233;-67
2021/12/09 05:58:22;;;;;;;10.23;7.57;;;0.70;99.90;;;;;;4976153;28;20054;-66
2021/12/09 06:00:52;;;;;;;16.05;8.57;;;0.70;99.90;;;;;;4975221;28;20042;-66
2021/12/09 06:03:19;;;;;;;12.88;8.32;;;0.70;99.90;;;;;;4976779;28;20050;-67
2021/12/09 06:05:48;;;;;;;13.20;9.63;;;0.70;99.90;;;;;;4976214;28;20693;-68
2021/12/09 06:08:14;;;;;;;12.25;8.98;;;0.70;99.90;;;;;;4975305;28;20268;-67
2021/12/09 06:10:41;;;;;;;;;;;0.70;99.90;;;;;;4977367;28;20244;-68
2021/12/09 06:13:08;;;;;;;12.05;7.65;;;0.70;99.90;;;;;;4976712;28;19925;-67
2021/12/09 06:15:35;;;;;;;;;;;0.70;99.90;;;;;;4976724;28;20337;-67
2021/12/09 06:18:03;;;;;;;13.87;8.67;;;0.70;99.90;;;;;;4975732;28;20456;-67
2021/12/09 06:20:30;;;;;;;12.65;9.25;;;0.70;99.90;;;;;;4975031;28;20042;-66
2021/12/09 06:22:57;;;;;;;12.32;8.98;;;0.70;99.90;;;;;;4975911;28;20501;-67
2021/12/09 06:25:24;;;;;;;;;;;0.70;99.90;;;;;;4976144;28;20062;-67
2021/12/09 06:27:51;;;;;;;14.00;8.98;;;0.70;99.90;;;;;;4976250;28;20404;-68
2021/12/09 06:30:19;;;;;;;14.82;9.75;;;0.70;99.90;;;;;;4977311;28;20105;-68
2021/12/09 06:32:46;;;;;;;14.73;10.40;;;0.70;99.90;;;;;;4975500;28;20053;-67
2021/12/09 06:35:13;;;;;;;13.13;9.10;;;0.70;99.90;;;;;;4977343;28;20054;-68
2021/12/09 06:37:44;;;;;;;12.60;9.20;;;0.70;99.90;;;;;;4975403;28;20061;-68
2021/12/09 06:40:22;;;;;;;12.35;9.15;;;0.70;99.90;;;;;;4973006;28;20449;-68
2021/12/09 06:42:50;;;;;;;15.27;10.05;;;0.70;99.90;;;;;;4974320;28;20046;-67
2021/12/09 06:45:19;;;;;;;14.15;9.50;;;0.70;99.90;;;;;;4975813;28;20341;-67
2021/12/09 06:47:47;;;;;;;15.43;9.73;;;0.70;99.90;;;;;;4975608;28;20125;-68
2021/12/09 06:50:17;;;;;;;15.70;10.75;;;0.70;99.90;;;;;;4991111;28;20332;-68
2021/12/09 06:52:45;;;;;;;15.10;10.35;;;0.70;99.90;;;;;;4974351;28;20065;-68
2021/12/09 06:55:14;;;;;;;15.23;10.95;;;0.70;99.90;;;;;;4975917;28;20482;-67
2021/12/09 06:57:44;;;;;;;13.57;9.65;;;0.70;99.90;;;;;;4975972;28;20049;-68
2021/12/09 07:00:14;;;;;;;15.02;10.48;;;0.70;99.90;;;;;;4975676;28;20843;-67
2021/12/09 07:02:44;;;;;;;14.75;10.27;;;0.70;99.90;;;;;;4976310;28;20329;-68
2021/12/09 07:05:12;;;;;;;13.80;10.13;;;0.70;99.90;;;;;;4973167;28;20535;-67
2021/12/09 07:07:39;;;;;;;13.63;9.88;;;0.70;99.90;;;;;;4975101;28;20042;-69
2021/12/09 07:10:09;;;;;;;15.40;10.57;;;0.70;99.90;;;;;;4975232;28;20062;-68
2021/12/09 07:12:37;;;;;;;14.27;9.57;;;0.70;99.90;;;;;;4974987;28;20089;-67
2021/12/09 07:15:07;;;;;;;12.10;9.07;;;0.70;99.90;;;;;;4975643;28;20512;-66
2021/12/09 07:17:35;;;;;;;14.13;10.40;;;0.70;99.90;;;;;;4973915;28;20050;-68
2021/12/09 07:20:05;;;;;;;29.10;10.98;;;0.70;99.90;;;;;;4974877;28;20043;-68
2021/12/09 07:22:32;;;;;;;13.50;10.23;;;0.70;99.90;;;;;;4974265;28;20057;-67
2021/12/09 07:24:59;;;;;;;24.40;11.85;;;0.70;99.90;;;;;;4975058;28;20043;-68
2021/12/09 07:27:26;;;;;;;;;;;0.70;99.90;;;;;;4975786;28;20038;-68
2021/12/09 07:29:53;;;;;;;16.92;9.52;;;0.70;99.90;;;;;;4975249;28;20335;-67
2021/12/09 07:32:19;;;;;;;12.10;9.02;;;0.70;99.90;;;;;;4974438;28;20054;-71
2021/12/09 07:34:47;;;;;;;12.38;9.55;;;0.70;99.90;;;;;;4974706;28;20061;-72
2021/12/09 07:37:13;;;;;;;17.05;10.98;;;0.70;99.90;;;;;;4974656;28;20377;-71
2021/12/09 07:39:40;;;;;;;14.23;10.02;;;0.70;99.90;;;;;;4973856;28;20038;-71
2021/12/09 07:42:08;;;;;;;;;;;0.80;99.90;;;;;;4975991;28;20392;-72
2021/12/09 07:44:35;;;;;;;;;;;0.80;99.90;;;;;;4975798;28;19936;-72
2021/12/09 07:47:02;;;;;;;12.65;8.80;;;0.80;99.90;;;;;;4975190;28;19934;-72
2021/12/09 07:49:29;;;;;;;18.05;10.85;;;0.80;99.90;;;;;;4974913;28;20050;-71
2021/12/09 07:51:55;;;;;;;;;;;0.80;99.90;;;;;;4974921;28;20509;-71
2021/12/09 07:54:23;;;;;;;16.27;10.65;;;0.80;99.90;;;;;;4975065;28;19925;-72
2021/12/09 07:56:50;;;;;;;18.85;12.30;;;0.80;99.90;;;;;;4973300;28;20050;-72
2021/12/09 07:59:17;;;;;;;16.50;11.70;;;0.80;99.90;;;;;;4973547;28;20054;-72
2021/12/09 08:01:45;;;;;;;25.63;12.70;;;0.90;99.90;;;;;;4975011;28;20042;-72
2021/12/09 08:04:12;;;;;;;20.65;13.25;;;0.90;99.90;;;;;;4974423;28;20054;-72
2021/12/09 08:06:38;;;;;;;18.30;11.88;;;0.90;99.90;;;;;;4973325;28;20420;-72
2021/12/09 08:09:06;;;;;;;;;;;0.90;99.90;;;;;;4971471;28;20049;-72
2021/12/09 08:11:33;;;;;;;16.90;10.55;;;0.90;99.90;;;;;;4971762;28;19932;-70
2021/12/09 08:14:00;;;;;;;13.75;10.30;;;0.90;99.90;;;;;;4973145;28;20528;-72
2021/12/09 08:16:29;;;;;;;19.35;10.18;;;0.90;99.90;;;;;;4974505;28;20706;-72
2021/12/09 08:18:56;;;;;;;15.25;10.57;;;0.90;99.90;;;;;;4973236;28;20043;-72
2021/12/09 08:21:25;;;;;;;19.48;12.07;;;0.90;99.90;;;;;;4974876;28;20069;-73
2021/12/09 08:23:53;;;;;;;17.17;11.27;;;1.00;99.90;;;;;;4973456;28;20058;-72
2021/12/09 08:26:21;;;;;;;17.80;10.32;;;1.00;99.90;;;;;;4973576;28;20468;-72
2021/12/09 08:28:48;;;;;;;12.85;9.90;;;1.00;99.90;;;;;;4970798;28;20054;-72
2021/12/09 08:31:15;;;;;;;16.48;10.40;;;1.00;99.90;;;;;;4973589;28;20045;-72
2021/12/09 08:33:42;;;;;;;16.65;10.70;;;1.00;99.90;;;;;;4973548;28;20046;-73
2021/12/09 08:36:29;;;;;;;16.60;10.88;;;1.00;99.90;;;;;;4973272;28;20077;-72
2021/12/09 08:38:56;;;;;;;15.82;9.90;;;1.10;99.90;;;;;;4973224;28;20054;-73
2021/12/09 08:41:24;;;;;;;13.88;9.40;;;1.10;99.90;;;;;;4973020;28;20403;-74
2021/12/09 08:43:51;;;;;;;16.92;8.00;;;1.10;99.90;;;;;;4972968;28;20743;-73
2021/12/09 08:46:18;;;;;;;15.13;8.45;;;1.10;99.90;;;;;;4972680;28;20061;-72
2021/12/09 08:48:46;;;;;;;11.35;7.95;;;1.10;99.90;;;;;;4972342;28;20042;-73
2021/12/09 08:51:14;;;;;;;14.05;8.73;;;1.10;99.90;;;;;;4974485;28;20213;-73
2021/12/09 08:53:41;;;;;;;12.88;6.93;;;1.10;99.90;;;;;;4972707;28;20444;-73
2021/12/09 08:56:08;;;;;;;9.68;6.82;;;1.20;99.90;;;;;;4974502;28;20148;-73
2021/12/09 08:58:36;;;;;;;11.65;6.90;;;1.20;99.90;;;;;;4972325;28;20054;-73
2021/12/09 09:01:04;;;;;;;13.38;7.63;;;1.20;99.90;;;;;;4974069;28;20034;-72
2021/12/09 09:03:31;;;;;;;11.73;7.15;;;1.20;99.90;;;;;;4973187;28;20046;-73
2021/12/09 09:06:01;;;;;;;17.67;7.50;;;1.20;99.90;;;;;;4972833;28;20121;-73
2021/12/09 09:08:28;;;;;;;12.60;7.22;;;1.20;99.90;;;;;;4973307;28;20600;-73
2021/12/09 09:10:55;;;;;;;11.52;6.70;;;1.30;99.90;;;;;;4971258;28;20056;-72
2021/12/09 09:13:23;;;;;;;12.55;6.63;;;1.30;99.90;;;;;;4971622;28;20523;-72
2021/12/09 09:15:50;;;;;;;13.95;7.18;;;1.30;99.90;;;;;;4970827;28;20124;-73
2021/12/09 09:18:18;;;;;;;12.25;6.07;;;1.30;99.90;;;;;;4974112;28;20357;-73
2021/12/09 09:20:46;;;;;;;12.60;6.13;;;1.30;99.90;;;;;;4972095;28;20050;-73
2021/12/09 09:23:16;;;;;;;12.77;7.03;;;1.40;99.90;;;;;;4972039;28;20050;-73
2021/12/09 09:25:43;;;;;;;12.48;7.15;;;1.40;99.90;;;;;;4970990;28;20394;-72
2021/12/09 09:28:11;;;;;;;9.23;5.55;;;1.40;99.90;;;;;;4973107;28;20047;-72
2021/12/09 09:30:40;;;;;;;11.27;6.30;;;1.40;99.90;;;;;;4971764;28;20888;-73
2021/12/09 09:33:10;;;;;;;8.10;5.43;;;1.50;99.90;;;;;;4971566;28;20054;-73
2021/12/09 09:35:39;;;;;;;8.32;5.03;;;1.50;99.90;;;;;;4972634;28;20065;-73
2021/12/09 09:38:07;;;;;;;12.35;6.03;;;1.60;99.90;;;;;;4971337;28;20046;-73
2021/12/09 09:40:52;;;;;;;9.60;5.88;;;1.60;99.90;;;;;;4973340;28;20050;-73
2021/12/09 09:43:29;;;;;;;12.10;6.60;;;1.60;99.90;;;;;;4973199;28;20061;-72
2021/12/09 09:46:05;;;;;;;6.03;5.00;;;1.60;99.90;;;;;;4973390;28;20042;-72
2021/12/09 09:48:33;;;;;;;7.30;4.72;;;1.60;99.90;;;;;;4972319;28;20762;-73
2021/12/09 09:51:02;;;;;;;6.22;4.63;;;1.70;99.90;;;;;;4971389;28;20055;-72
2021/12/09 09:53:29;;;;;;;7.70;4.35;;;1.70;99.90;;;;;;4972791;28;20484;-73
2021/12/09 09:55:56;;;;;;;10.48;5.18;;;1.70;99.90;;;;;;4972865;28;20495;-72
2021/12/09 09:58:25;;;;;;;6.95;4.47;;;1.70;99.90;;;;;;4972973;28;20317;-72
2021/12/09 10:00:52;;;;;;;11.43;4.57;;;1.70;99.90;;;;;;4972016;28;20061;-72
2021/12/09 10:03:27;;;;;;;8.05;3.88;;;1.70;99.90;;;;;;4973511;28;20587;-72
2021/12/09 10:05:57;;;;;;;14.35;5.03;;;1.70;99.90;;;;;;4972277;28;20137;-72
2021/12/09 10:08:24;;;;;;;6.82;4.70;;;1.70;99.90;;;;;;4973573;28;20523;-70
2021/12/09 10:10:51;;;;;;;10.20;4.82;;;1.70;99.90;;;;;;4971029;28;20135;-71
2021/12/09 10:13:18;;;;;;;9.57;5.05;;;1.80;99.90;;;;;;4972064;28;20421;-72
2021/12/09 10:15:51;;;;;;;8.43;3.65;;;1.80;99.90;;;;;;4969811;28;20189;-72
2021/12/09 10:18:42;;;;;;;13.20;4.72;;;1.80;99.90;;;;;;4962213;28;20351;-73
2021/12/09 10:21:12;;;;;;;7.82;3.72;;;1.80;99.90;;;;;;4971362;28;20038;-73
2021/12/09 10:23:50;;;;;;;8.15;3.72;;;1.80;99.90;;;;;;4968454;28;20440;-73
2021/12/09 10:26:32;;;;;;;10.02;3.70;;;1.80;99.90;;;;;;4972289;28;20390;-73
2021/12/09 10:29:05;;;;;;;14.35;3.72;;;1.80;99.90;;;;;;4970892;28;20340;-73
2021/12/09 10:31:45;;;;;;;8.75;4.80;;;1.80;99.90;;;;;;4972330;28;20128;-73
2021/12/09 10:34:37;;;;;;;9.93;3.72;;;1.80;99.90;;;;;;4971613;28;20042;-72
2021/12/09 10:37:25;;;;;;;11.80;4.00;;;1.80;99.90;;;;;;4970667;28;20437;-73
2021/12/09 10:40:00;;;;;;;10.38;3.15;;;1.80;99.90;;;;;;4971631;28;20519;-72
2021/12/09 10:42:29;;;;;;;10.68;4.50;;;1.80;99.90;;;;;;4975866;28;20042;-73
2021/12/09 10:45:06;;;;;;;9.82;4.35;;;1.80;99.90;;;;;;4972951;28;20086;-73
2021/12/09 10:47:59;;;;;;;;;;;1.70;99.90;;;;;;4976025;28;20049;-73
2021/12/09 10:50:39;;;;;;;5.80;3.45;;;1.80;99.90;;;;;;4974886;28;19933;-73
2021/12/09 10:55:51;;;;;;;6.38;3.58;;;1.80;99.90;;;;;;4975015;28;20590;-72
2021/12/09 10:58:21;;;;;;;6.63;3.65;;;1.80;99.90;;;;;;4974438;28;20043;-71
2021/12/09 11:00:52;;;;;;;4.72;3.55;;;1.80;99.90;;;;;;4972621;28;20062;-72
2021/12/09 11:03:21;;;;;;;8.48;4.18;;;1.90;99.90;;;;;;4976162;28;20047;-72
2021/12/09 11:05:59;;;;;;;13.77;4.10;;;1.90;99.90;;;;;;4975971;28;20053;-73
2021/12/09 11:08:30;;;;;;;;;;;1.90;99.90;;;;;;4976589;28;20058;-72
2021/12/09 11:11:05;;;;;;;8.35;3.83;;;1.90;99.90;;;;;;4976920;28;19926;-71
2021/12/09 11:13:53;;;;;;;9.98;4.32;;;1.90;99.90;;;;;;4976172;28;20057;-73
2021/12/09 11:16:30;;;;;;;9.07;3.80;;;1.90;99.90;;;;;;4974469;28;20038;-73
2021/12/09 11:19:13;;;;;;;9.38;4.43;;;1.90;99.90;;;;;;4969812;28;20344;-72
2021/12/09 11:21:51;;;;;;;11.65;4.05;;;1.90;99.90;;;;;;4954253;28;20066;-73
2021/12/09 11:24:20;;;;;;;6.82;3.58;;;1.90;99.90;;;;;;4955972;28;20042;-73
2021/12/09 11:26:56;;;;;;;7.43;3.45;;;1.90;99.90;;;;;;4972164;28;20191;-73
2021/12/09 11:29:38;;;;;;;10.43;5.25;;;1.90;99.90;;;;;;4974505;28;20122;-71
2021/12/09 11:35:14;;;;;;;11.20;3.67;;;2.00;99.90;;;;;;4966486;28;20065;-73
2021/12/09 11:40:37;;;;;;;5.40;3.20;;;2.00;99.90;;;;;;4977886;28;20096;-71
2021/12/09 11:43:06;;;;;;;10.40;4.55;;;2.00;99.90;;;;;;4976390;28;20050;-71
2021/12/09 11:45:42;;;;;;;7.13;3.30;;;1.90;99.90;;;;;;4978013;28;20145;-71
2021/12/09 11:48:11;;;;;;;11.82;4.38;;;1.90;99.90;;;;;;4978705;28;20031;-71
2021/12/09 11:50:42;;;;;;;7.07;3.38;;;1.90;99.90;;;;;;4979195;28;20054;-72
2021/12/09 11:53:12;;;;;;;7.90;3.55;;;1.80;99.90;;;;;;4977936;28;20070;-71
2021/12/09 11:55:45;;;;;;;8.95;3.78;;;1.80;99.90;;;;;;4978564;28;20401;-71
2021/12/09 12:12:54;;;;;;;9.68;3.70;;;1.70;99.90;;;;;;4976273;28;20523;-71
2021/12/09 12:21:06;;;;;;;4.88;3.00;;;1.80;99.90;;;;;;4976181;28;20046;-71
2021/12/09 12:27:26;;;;;;;4.07;3.00;;;1.90;99.90;;;;;;4975487;28;20439;-71
2021/12/09 12:33:10;;;;;;;6.72;2.90;;;2.10;99.90;;;;;;4973313;28;20069;-71
2021/12/09 12:40:15;;;;;;;4.72;2.90;;;2.30;99.90;;;;;;4974286;28;20130;-71
2021/12/09 12:43:01;;;;;;;5.40;2.72;;;2.30;99.90;;;;;;4971682;28;20124;-71
2021/12/09 12:46:10;;;;;;;6.93;2.97;;;2.40;99.90;;;;;;4976555;28;20046;-70
2021/12/09 12:51:13;;;;;;;7.38;3.00;;;2.40;99.90;;;;;;4976192;28;20046;-70
2021/12/09 12:53:43;;;;;;;3.70;2.65;;;2.40;99.90;;;;;;4974777;28;20113;-70
2021/12/09 12:56:13;;;;;;;5.07;2.50;;;2.40;99.90;;;;;;4974703;28;20425;-70
2021/12/09 12:59:07;;;;;;;5.18;2.70;;;2.40;99.90;;;;;;4973517;28;20519;-70
2021/12/09 13:01:36;;;;;;;5.20;2.63;;;2.40;99.90;;;;;;4973545;28;20668;-70
2021/12/09 13:04:54;;;;;;;2.50;2.20;;;2.40;99.90;;;;;;4973426;28;20120;-69
2021/12/09 13:10:25;;;;;;;6.53;2.50;;;2.40;99.90;;;;;;4974672;28;20050;-70
2021/12/09 13:13:06;;;;;;;4.78;2.35;;;2.40;99.90;;;;;;4972274;28;20054;-69
2021/12/09 13:15:49;;;;;;;2.92;2.28;;;2.40;99.90;;;;;;4974074;28;20385;-69
2021/12/09 13:18:41;;;;;;;4.35;2.20;;;2.40;99.90;;;;;;4973616;28;20500;-69
2021/12/09 13:21:39;;;;;;;5.00;2.25;;;2.40;99.90;;;;;;4974872;28;20065;-69
2021/12/09 13:24:22;;;;;;;5.40;1.95;;;2.30;99.90;;;;;;4973541;28;20078;-69
2021/12/09 13:27:02;;;;;;;4.07;2.05;;;2.30;99.90;;;;;;4974182;28;20054;-70
2021/12/09 13:29:38;;;;;;;4.55;2.25;;;2.30;99.90;;;;;;4973428;28;20053;-69
2021/12/09 13:32:22;;;;;;;4.57;2.35;;;2.30;99.90;;;;;;4974782;28;20057;-69
2021/12/09 13:35:05;;;;;;;3.30;2.13;;;2.40;99.90;;;;;;4973598;28;20577;-69
2021/12/09 13:37:55;;;;;;;3.80;2.58;;;2.40;99.90;;;;;;4975035;28;20039;-69
2021/12/09 13:40:40;;;;;;;4.63;2.13;;;2.40;99.90;;;;;;4973723;28;20054;-69
2021/12/09 13:46:08;;;;;;;4.70;2.28;;;2.50;99.90;;;;;;4973374;28;20523;-69
2021/12/09 13:48:48;;;;;;;11.02;2.17;;;2.40;99.90;;;;;;4974125;28;20047;-69
2021/12/09 13:51:40;;;;;;;4.70;2.55;;;2.40;99.90;;;;;;4973817;28;20054;-69
2021/12/09 13:56:46;;;;;;;5.00;1.98;;;2.40;99.90;;;;;;4972451;28;20050;-70
2021/12/09 13:59:18;;;;;;;5.20;2.40;;;2.40;99.90;;;;;;4970447;28;20294;-70
2021/12/09 14:01:46;;;;;;;3.67;2.53;;;2.30;99.90;;;;;;4971056;28;20046;-70
2021/12/09 14:04:17;;;;;;;3.72;2.20;;;2.20;99.90;;;;;;4974563;28;20419;-70
2021/12/09 14:06:57;;;;;;;4.43;2.50;;;2.20;99.90;;;;;;4971769;28;20038;-70
2021/12/09 14:09:26;;;;;;;8.20;2.60;;;2.10;99.90;;;;;;4973568;28;20039;-70